Time;durP1;ratioP1;P1;durP2;ratioP2;P2;SDS_P1;SDS_P2;PMS_P1;PMS_P2;Temp;Humidity;BMP_temperature;BMP_pressure;BME280_temperature;BME280_humidity;BME280_pressure;Samples;Min_cycle;Max_cycle;Signal;HPM_P1;HPM_P2
2023/05/21 00:00:10;;;;;;;;;;;;;;;20.10;58.98;99416.66;5091952;28;19999;-36
2023/05/21 00:02:36;;;;;;;;;;;;;;;20.13;59.03;99407.19;5091318;28;19934;-36
2023/05/21 00:05:01;;;;;;;;;;;;;;;20.41;58.13;99408.44;5088822;28;20556;-36
2023/05/21 00:07:26;;;;;;;;;;;;;;;20.18;59.00;99400.94;5085060;28;19912;-36
2023/05/21 00:09:52;;;;;;;;;;;;;;;20.40;58.64;99400.59;5090287;28;20238;-36
2023/05/21 00:12:17;;;;;;;;;;;;;;;20.42;57.89;99398.44;5091016;28;20015;-36
2023/05/21 00:14:42;;;;;;;;;;;;;;;20.56;57.89;99395.91;5090463;28;19911;-36
2023/05/21 00:17:08;;;;;;;;;;;;;;;20.66;57.51;99391.31;5071263;28;19939;-36
2023/05/21 00:19:33;;;;;;;;;;;;;;;20.49;57.81;99388.13;5071173;28;20019;-36
2023/05/21 00:22:01;;;;;;;;;;;;;;;20.48;57.66;99383.78;5071454;28;20352;-36
2023/05/21 00:24:27;;;;;;;;;;;;;;;20.56;57.48;99382.41;5071340;28;19916;-36
2023/05/21 00:26:52;;;;;;;;;;;;;;;20.51;57.42;99383.25;5070998;28;19952;-36
2023/05/21 00:29:17;;;;;;;;;;;;;;;20.52;57.44;99387.56;5070795;28;19967;-36
2023/05/21 00:31:43;;;;;;;;;;;;;;;20.73;56.91;99382.06;5071064;28;20347;-36
2023/05/21 00:34:08;;;;;;;;;;;;;;;20.55;57.17;99384.31;5071008;28;19919;-36
2023/05/21 00:36:33;;;;;;;;;;;;;;;20.24;58.82;99367.44;5070797;28;19920;-36
2023/05/21 00:38:58;;;;;;;;;;;;;;;20.41;57.70;99367.91;5070976;28;19982;-36
2023/05/21 00:41:24;;;;;;;;;;;;;;;20.04;58.58;99365.59;5070830;28;19913;-36
2023/05/21 00:43:51;;;;;;;;;;;;;;;20.30;57.86;99364.41;5070496;28;20502;-36
2023/05/21 00:46:18;;;;;;;;;;;;;;;20.50;57.13;99360.84;5070808;28;19913;-36
2023/05/21 00:48:44;;;;;;;;;;;;;;;20.64;57.32;99361.06;5070685;28;20080;-36
2023/05/21 00:51:10;;;;;;;;;;;;;;;20.61;56.90;99361.59;5070855;28;19923;-36
2023/05/21 00:53:35;;;;;;;;;;;;;;;20.64;57.07;99357.53;5070893;28;19916;-36
2023/05/21 00:56:01;;;;;;;;;;;;;;;20.49;57.39;99364.59;5070539;28;19969;-36
2023/05/21 00:58:27;;;;;;;;;;;;;;;20.27;58.40;99359.56;5070570;28;19967;-35
2023/05/21 01:00:55;;;;;;;;;;;;;;;20.22;58.67;99364.19;5070579;28;19912;-36
2023/05/21 01:03:24;;;;;;;;;;;;;;;20.24;58.37;99362.84;5070271;28;19912;-36
2023/05/21 01:05:51;;;;;;;;;;;;;;;19.92;59.74;99358.63;5070332;28;19916;-36
2023/05/21 01:08:19;;;;;;;;;;;;;;;20.02;59.90;99357.78;5070280;28;19917;-36
2023/05/21 01:10:44;;;;;;;;;;;;;;;19.93;60.01;99359.41;5070623;28;19952;-35
2023/05/21 01:13:10;;;;;;;;;;;;;;;19.71;60.18;99360.53;5070580;28;19912;-36
2023/05/21 01:15:37;;;;;;;;;;;;;;;19.20;62.48;99363.28;5079502;28;19962;-36
2023/05/21 01:18:02;;;;;;;;;;;;;;;19.60;61.40;99364.31;5090390;28;19912;-36
2023/05/21 01:20:30;;;;;;;;;;;;;;;19.53;61.20;99355.69;5090705;28;19991;-36
2023/05/21 01:22:56;;;;;;;;;;;;;;;19.46;61.69;99357.88;5090228;28;19974;-36
2023/05/21 01:25:22;;;;;;;;;;;;;;;19.22;62.19;99361.09;5090530;28;20392;-36
2023/05/21 01:27:47;;;;;;;;;;;;;;;18.97;62.81;99361.91;5090168;28;19951;-36
2023/05/21 01:30:14;;;;;;;;;;;;;;;19.23;62.29;99361.91;5090487;28;20304;-36
2023/05/21 01:32:46;;;;;;;;;;;;;;;18.84;63.26;99338.97;5090474;28;19935;-36
2023/05/21 01:35:13;;;;;;;;;;;;;;;19.21;62.31;99351.41;5090499;28;19919;-36
2023/05/21 01:37:45;;;;;;;;;;;;;;;19.05;62.91;99342.50;5090217;28;19912;-36
2023/05/21 01:40:15;;;;;;;;;;;;;;;19.31;62.13;99345.19;5090214;28;19927;-36
2023/05/21 01:42:43;;;;;;;;;;;;;;;19.66;61.09;99344.34;5090215;28;19916;-36
2023/05/21 01:45:09;;;;;;;;;;;;;;;19.22;61.71;99349.53;5090337;28;19951;-36
2023/05/21 01:47:35;;;;;;;;;;;;;;;18.98;62.89;99349.22;5090246;28;19912;-36
2023/05/21 01:50:02;;;;;;;;;;;;;;;18.94;63.50;99348.94;5090402;28;19912;-36
2023/05/21 01:52:27;;;;;;;;;;;;;;;19.06;62.09;99338.72;5090247;28;19912;-36
2023/05/21 01:54:53;;;;;;;;;;;;;;;19.27;62.05;99344.94;5090105;28;19972;-36
2023/05/21 01:57:19;;;;;;;;;;;;;;;19.26;61.56;99339.81;5090000;28;19916;-36
2023/05/21 01:59:44;;;;;;;;;;;;;;;19.55;60.44;99342.72;5090041;28;19927;-36
2023/05/21 02:02:09;;;;;;;;;;;;;;;19.39;61.19;99341.16;5090015;28;20316;-36
2023/05/21 02:04:36;;;;;;;;;;;;;;;19.69;60.37;99338.41;5089993;28;20320;-36
2023/05/21 02:07:01;;;;;;;;;;;;;;;19.64;60.02;99334.91;5088203;28;20368;-36
2023/05/21 02:09:26;;;;;;;;;;;;;;;19.79;59.78;99334.09;5090008;28;19963;-36
2023/05/21 02:11:53;;;;;;;;;;;;;;;19.56;60.23;99335.47;5088776;28;19912;-36
2023/05/21 02:14:19;;;;;;;;;;;;;;;19.43;60.59;99334.94;5088760;28;20410;-36
2023/05/21 02:16:44;;;;;;;;;;;;;;;19.31;61.10;99337.91;5093728;28;19920;-36
2023/05/21 02:19:10;;;;;;;;;;;;;;;19.26;61.37;99326.31;5093977;28;19916;-37
2023/05/21 02:21:35;;;;;;;;;;;;;;;19.54;60.73;99333.03;5092914;28;19912;-35
2023/05/21 02:24:00;;;;;;;;;;;;;;;19.11;62.27;99336.03;5092955;28;19915;-38
2023/05/21 02:26:26;;;;;;;;;;;;;;;19.29;61.29;99331.97;5093678;28;19943;-37
2023/05/21 02:28:54;;;;;;;;;;;;;;;19.58;60.64;99325.19;5093369;28;19928;-37
2023/05/21 02:31:19;;;;;;;;;;;;;;;19.60;60.34;99325.75;5093644;28;19912;-37
2023/05/21 02:33:45;;;;;;;;;;;;;;;19.61;60.25;99333.56;5092660;28;19972;-37
2023/05/21 02:36:11;;;;;;;;;;;;;;;19.63;60.62;99335.97;5092638;28;19912;-35
2023/05/21 02:38:43;;;;;;;;;;;;;;;19.52;60.29;99332.50;5092123;28;19994;-36
2023/05/21 02:41:11;;;;;;;;;;;;;;;19.37;60.76;99325.22;5093272;28;20013;-36
2023/05/21 02:43:36;;;;;;;;;;;;;;;19.53;60.83;99331.41;5093128;28;20378;-36
2023/05/21 02:46:02;;;;;;;;;;;;;;;19.60;60.53;99325.75;5093341;28;20003;-37
2023/05/21 02:48:27;;;;;;;;;;;;;;;19.64;59.54;99318.72;5092164;28;20364;-37
2023/05/21 02:50:53;;;;;;;;;;;;;;;19.43;60.23;99323.34;5091772;28;19952;-37
2023/05/21 02:53:18;;;;;;;;;;;;;;;19.52;59.92;99325.19;5092511;28;19991;-36
2023/05/21 02:55:43;;;;;;;;;;;;;;;19.62;59.12;99324.38;5092360;28;19913;-36
2023/05/21 02:58:09;;;;;;;;;;;;;;;19.83;58.76;99330.56;5092357;28;20021;-36
2023/05/21 03:00:34;;;;;;;;;;;;;;;19.89;58.46;99332.16;5092370;28;19947;-37
2023/05/21 03:03:00;;;;;;;;;;;;;;;19.94;58.10;99330.53;5092906;28;19916;-37
2023/05/21 03:05:25;;;;;;;;;;;;;;;19.70;58.72;99323.00;5092306;28;19923;-36
2023/05/21 03:07:50;;;;;;;;;;;;;;;19.68;59.07;99328.66;5093276;28;19916;-36
2023/05/21 03:10:15;;;;;;;;;;;;;;;19.86;58.48;99327.31;5093282;28;19912;-37
2023/05/21 03:12:41;;;;;;;;;;;;;;;19.89;58.80;99334.06;5093186;28;20443;-36
2023/05/21 03:15:06;;;;;;;;;;;;;;;20.07;58.03;99335.34;5092829;28;19916;-37
2023/05/21 03:17:32;;;;;;;;;;;;;;;20.14;57.95;99332.34;5093330;28;20390;-36
2023/05/21 03:19:57;;;;;;;;;;;;;;;20.09;58.10;99335.88;5093073;28;19977;-34
2023/05/21 03:22:22;;;;;;;;;;;;;;;20.28;57.29;99336.06;5092968;28;19912;-35
2023/05/21 03:24:47;;;;;;;;;;;;;;;20.16;58.19;99335.56;5092932;28;19963;-35
2023/05/21 03:27:13;;;;;;;;;;;;;;;20.21;57.87;99336.38;5092733;28;20000;-36
2023/05/21 03:29:38;;;;;;;;;;;;;;;20.16;58.17;99341.78;5092745;28;20299;-35
2023/05/21 03:32:05;;;;;;;;;;;;;;;20.21;57.73;99341.75;5093098;28;20069;-36
2023/05/21 03:34:33;;;;;;;;;;;;;;;20.27;57.69;99343.34;5092973;28;19916;-36
2023/05/21 03:36:58;;;;;;;;;;;;;;;20.24;57.94;99348.53;5093301;28;19942;-36
2023/05/21 03:39:23;;;;;;;;;;;;;;;20.25;57.87;99331.22;5093166;28;19912;-36
2023/05/21 03:41:49;;;;;;;;;;;;;;;19.79;59.10;99331.41;5092841;28;20331;-36
2023/05/21 03:44:14;;;;;;;;;;;;;;;19.47;60.10;99338.69;5092683;28;19916;-35
2023/05/21 03:46:39;;;;;;;;;;;;;;;19.19;61.47;99339.25;5092788;28;19981;-36
2023/05/21 03:49:05;;;;;;;;;;;;;;;19.59;60.31;99340.28;5092450;28;19962;-36
2023/05/21 03:51:30;;;;;;;;;;;;;;;19.59;59.93;99343.84;5091928;28;19909;-35
2023/05/21 03:53:58;;;;;;;;;;;;;;;19.59;59.87;99338.44;5092563;28;19995;-35
2023/05/21 03:56:24;;;;;;;;;;;;;;;19.40;60.79;99334.66;5092654;28;19919;-36
2023/05/21 03:58:50;;;;;;;;;;;;;;;19.12;61.38;99337.66;5092323;28;20364;-36
2023/05/21 04:01:16;;;;;;;;;;;;;;;18.85;61.92;99337.06;5092724;28;19919;-36
2023/05/21 04:03:41;;;;;;;;;;;;;;;19.29;60.61;99333.88;5092281;28;19916;-35
2023/05/21 04:06:08;;;;;;;;;;;;;;;19.46;60.26;99336.28;5092352;28;19912;-36
2023/05/21 04:08:35;;;;;;;;;;;;;;;19.69;59.17;99337.59;5092371;28;19924;-36
2023/05/21 04:11:00;;;;;;;;;;;;;;;19.89;58.85;99331.34;5092354;28;19955;-36
2023/05/21 04:13:27;;;;;;;;;;;;;;;19.83;59.22;99337.84;5092009;28;19966;-35
2023/05/21 04:15:53;;;;;;;;;;;;;;;19.78;59.18;99338.69;5092034;28;20539;-36
2023/05/21 04:18:19;;;;;;;;;;;;;;;19.60;59.52;99328.44;5092079;28;19912;-36
2023/05/21 04:20:44;;;;;;;;;;;;;;;19.51;59.92;99339.78;5092059;28;19912;-36
2023/05/21 04:23:10;;;;;;;;;;;;;;;19.60;60.28;99336.53;5091815;28;19916;-36
2023/05/21 04:25:37;;;;;;;;;;;;;;;19.57;59.85;99329.78;5091837;28;19977;-36
2023/05/21 04:28:03;;;;;;;;;;;;;;;19.81;59.32;99335.44;5091481;28;19924;-35
2023/05/21 04:30:28;;;;;;;;;;;;;;;19.86;59.30;99334.63;5091577;28;19919;-36
2023/05/21 04:32:54;;;;;;;;;;;;;;;19.99;59.32;99334.03;5092282;28;20018;-34
2023/05/21 04:35:19;;;;;;;;;;;;;;;19.75;59.94;99333.81;5091867;28;19991;-35
2023/05/21 04:37:44;;;;;;;;;;;;;;;20.11;58.90;99339.91;5091274;28;19912;-36
2023/05/21 04:40:11;;;;;;;;;;;;;;;20.07;58.45;99329.97;5091607;28;20534;-36
2023/05/21 04:42:36;;;;;;;;;;;;;;;20.19;58.10;99333.13;5091380;28;19916;-35
2023/05/21 04:45:01;;;;;;;;;;;;;;;20.30;57.75;99332.00;5091714;28;19916;-35
2023/05/21 04:47:34;;;;;;;;;;;;;;;20.58;57.01;99329.72;5090761;28;20311;-35
2023/05/21 04:49:59;;;;;;;;;;;;;;;20.51;58.04;99331.91;5091262;28;20358;-36
2023/05/21 04:52:25;;;;;;;;;;;;;;;20.46;57.36;99334.63;5091274;28;19915;-35
2023/05/21 04:54:52;;;;;;;;;;;;;;;20.77;57.45;99339.88;5093663;28;20296;-37
2023/05/21 04:57:18;;;;;;;;;;;;;;;20.55;58.12;99338.38;5091478;28;19916;-36
2023/05/21 04:59:43;;;;;;;;;;;;;;;20.78;57.50;99338.81;5093614;28;19916;-36
2023/05/21 05:02:08;;;;;;;;;;;;;;;20.82;57.40;99339.84;5091103;28;20308;-36
2023/05/21 05:04:34;;;;;;;;;;;;;;;20.74;57.19;99332.34;5091469;28;19994;-35
2023/05/21 05:06:59;;;;;;;;;;;;;;;20.97;56.52;99339.72;5091151;28;19916;-36
2023/05/21 05:09:25;;;;;;;;;;;;;;;21.02;55.67;99339.72;5090905;28;19916;-36
2023/05/21 05:11:50;;;;;;;;;;;;;;;21.05;55.27;99344.53;5091312;28;19955;-36
2023/05/21 05:14:15;;;;;;;;;;;;;;;20.67;55.14;99346.16;5091073;28;20007;-36
2023/05/21 05:16:41;;;;;;;;;;;;;;;21.06;54.92;99348.06;5091233;28;19912;-36
2023/05/21 05:19:07;;;;;;;;;;;;;;;21.24;54.10;99347.34;5091080;28;20009;-35
2023/05/21 05:21:33;;;;;;;;;;;;;;;21.12;54.32;99354.25;5091279;28;20354;-36
2023/05/21 05:23:58;;;;;;;;;;;;;;;20.96;55.09;99357.06;5090903;28;19977;-36
2023/05/21 05:26:24;;;;;;;;;;;;;;;20.98;55.04;99354.06;5091097;28;19912;-36
2023/05/21 05:28:50;;;;;;;;;;;;;;;20.85;55.77;99358.22;5090833;28;20043;-37
2023/05/21 05:31:15;;;;;;;;;;;;;;;21.17;54.68;99363.13;5091186;28;20335;-37
2023/05/21 05:33:40;;;;;;;;;;;;;;;21.29;54.71;99355.44;5090868;28;20371;-36
2023/05/21 05:36:06;;;;;;;;;;;;;;;21.44;53.88;99362.66;5091060;28;19920;-35
2023/05/21 05:38:31;;;;;;;;;;;;;;;21.33;54.32;99365.72;5090855;28;19912;-36
2023/05/21 05:40:56;;;;;;;;;;;;;;;21.31;53.94;99360.56;5090770;28;20002;-36
2023/05/21 05:43:23;;;;;;;;;;;;;;;21.21;54.30;99369.59;5090885;28;19994;-36
2023/05/21 05:45:49;;;;;;;;;;;;;;;21.12;54.40;99370.47;5091083;28;20050;-36
2023/05/21 05:48:15;;;;;;;;;;;;;;;20.78;55.35;99371.25;5091121;28;20014;-36
2023/05/21 05:50:40;;;;;;;;;;;;;;;21.02;55.50;99371.38;5093923;28;19920;-36
2023/05/21 05:53:06;;;;;;;;;;;;;;;21.24;55.32;99373.63;5094814;28;19919;-36
2023/05/21 05:55:31;;;;;;;;;;;;;;;20.77;56.71;99385.84;5095025;28;20323;-36
2023/05/21 05:57:56;;;;;;;;;;;;;;;20.91;57.10;99383.34;5095386;28;20026;-36
2023/05/21 06:00:21;;;;;;;;;;;;;;;20.68;57.55;99383.72;5094824;28;19912;-36
2023/05/21 06:02:47;;;;;;;;;;;;;;;20.94;57.40;99380.84;5094487;28;20375;-36
2023/05/21 06:05:12;;;;;;;;;;;;;;;21.26;56.74;99376.84;5091461;28;19970;-36
2023/05/21 06:07:38;;;;;;;;;;;;;;;20.99;57.25;99388.94;5091826;28;20434;-36
2023/05/21 06:10:04;;;;;;;;;;;;;;;20.88;57.67;99384.69;5092699;28;19919;-36
2023/05/21 06:12:30;;;;;;;;;;;;;;;20.81;58.25;99386.88;5093655;28;19912;-35
2023/05/21 06:14:55;;;;;;;;;;;;;;;20.61;57.98;99385.13;5094751;28;19918;-37
2023/05/21 06:17:20;;;;;;;;;;;;;;;20.58;58.17;99386.47;5094168;28;19916;-36
2023/05/21 06:19:46;;;;;;;;;;;;;;;21.01;57.06;99378.66;5094348;28;20012;-35
2023/05/21 06:22:11;;;;;;;;;;;;;;;21.07;57.44;99380.22;5094578;28;19912;-36
2023/05/21 06:24:36;;;;;;;;;;;;;;;21.17;56.95;99373.94;5094664;28;19946;-36
2023/05/21 06:27:02;;;;;;;;;;;;;;;21.18;56.51;99375.56;5095050;28;20014;-36
2023/05/21 06:29:28;;;;;;;;;;;;;;;20.84;57.96;99370.13;5094493;28;19931;-36
2023/05/21 06:31:53;;;;;;;;;;;;;;;21.29;56.27;99363.56;5094621;28;20311;-36
2023/05/21 06:34:18;;;;;;;;;;;;;;;21.34;56.21;99372.72;5094788;28;19923;-36
2023/05/21 06:36:44;;;;;;;;;;;;;;;21.16;56.43;99377.72;5094450;28;19920;-37
2023/05/21 06:39:09;;;;;;;;;;;;;;;21.22;56.17;99378.50;5094033;28;19916;-36
2023/05/21 06:41:35;;;;;;;;;;;;;;;21.09;56.21;99379.94;5094270;28;19913;-36
2023/05/21 06:44:00;;;;;;;;;;;;;;;21.46;55.04;99376.72;5094161;28;20445;-36
2023/05/21 06:46:25;;;;;;;;;;;;;;;21.46;57.07;99384.03;5094068;28;19923;-36
2023/05/21 06:48:50;;;;;;;;;;;;;;;21.55;54.94;99379.63;5093854;28;20364;-36
2023/05/21 06:51:16;;;;;;;;;;;;;;;21.53;55.07;99381.78;5093840;28;20445;-36
2023/05/21 06:53:41;;;;;;;;;;;;;;;21.68;54.57;99383.53;5096048;28;19966;-36
2023/05/21 06:56:06;;;;;;;;;;;;;;;21.24;55.56;99382.53;5092881;28;19958;-36
2023/05/21 06:58:32;;;;;;;;;;;;;;;21.13;57.04;99383.69;5098872;28;19977;-36
2023/05/21 07:00:58;;;;;;;;;;;;;;;20.46;60.03;99391.38;5091946;28;19950;-36
2023/05/21 07:03:23;;;;;;;;;;;;;;;20.50;60.98;99378.91;5092712;28;19994;-36
2023/05/21 07:05:48;;;;;;;;;;;;;;;20.67;61.24;99382.09;5093592;28;20352;-35
2023/05/21 07:08:13;;;;;;;;;;;;;;;20.72;61.97;99386.69;5093238;28;19955;-36
2023/05/21 07:10:39;;;;;;;;;;;;;;;20.82;61.73;99383.09;5093504;28;19996;-36
2023/05/21 07:13:04;;;;;;;;;;;;;;;20.91;62.28;99380.63;5092938;28;19961;-36
2023/05/21 07:15:30;;;;;;;;;;;;;;;21.05;62.06;99379.69;5092374;28;19946;-37
2023/05/21 07:17:55;;;;;;;;;;;;;;;20.70;64.94;99378.06;5092834;28;19912;-36
2023/05/21 07:20:20;;;;;;;;;;;;;;;21.02;65.66;99372.16;5091382;28;19950;-36
2023/05/21 07:22:46;;;;;;;;;;;;;;;21.16;62.21;99376.94;5092846;28;19912;-36
2023/05/21 07:25:11;;;;;;;;;;;;;;;21.28;61.23;99374.66;5092649;28;19973;-36
2023/05/21 07:27:36;;;;;;;;;;;;;;;21.46;59.25;99375.91;5092480;28;20311;-36
2023/05/21 07:30:01;;;;;;;;;;;;;;;21.73;60.78;99377.28;5090838;28;19920;-36
2023/05/21 07:32:27;;;;;;;;;;;;;;;22.14;61.15;99382.25;5088887;28;20028;-35
2023/05/21 07:34:53;;;;;;;;;;;;;;;22.63;57.56;99384.63;5096134;28;20283;-36
2023/05/21 07:37:19;;;;;;;;;;;;;;;22.75;56.58;99377.97;5091654;28;19999;-35
2023/05/21 07:39:44;;;;;;;;;;;;;;;22.96;58.22;99370.34;5091901;28;19916;-35
2023/05/21 07:42:10;;;;;;;;;;;;;;;23.00;55.70;99382.22;5101435;28;20387;-36
2023/05/21 07:44:35;;;;;;;;;;;;;;;23.20;54.96;99381.13;5095643;28;20014;-36
2023/05/21 07:47:00;;;;;;;;;;;;;;;23.41;54.67;99385.09;5095755;28;20313;-36
2023/05/21 07:49:25;;;;;;;;;;;;;;;23.76;51.49;99382.06;5091507;28;19939;-35
2023/05/21 07:51:51;;;;;;;;;;;;;;;23.99;51.36;99388.47;5096407;28;19920;-37
2023/05/21 07:54:16;;;;;;;;;;;;;;;24.09;50.57;99388.28;5094047;28;19916;-36
2023/05/21 07:56:41;;;;;;;;;;;;;;;23.81;49.15;99393.66;5091600;28;19981;-36
2023/05/21 07:59:06;;;;;;;;;;;;;;;23.57;49.84;99387.56;5091425;28;20095;-36
2023/05/21 08:01:32;;;;;;;;;;;;;;;23.66;49.50;99380.34;5091254;28;19913;-36
2023/05/21 08:03:59;;;;;;;;;;;;;;;23.91;49.08;99389.16;5090376;28;20007;-36
2023/05/21 08:06:25;;;;;;;;;;;;;;;24.39;46.93;99375.19;5090670;28;20031;-36
2023/05/21 08:08:50;;;;;;;;;;;;;;;24.66;45.67;99379.78;5091149;28;20152;-36
2023/05/21 08:11:16;;;;;;;;;;;;;;;24.86;46.33;99389.38;5091427;28;19932;-36
2023/05/21 08:13:41;;;;;;;;;;;;;;;25.12;45.81;99384.16;5088049;28;19919;-38
2023/05/21 08:16:06;;;;;;;;;;;;;;;25.25;44.04;99387.97;5091834;28;19970;-36
2023/05/21 08:18:31;;;;;;;;;;;;;;;25.38;44.05;99385.47;5091718;28;19916;-36
2023/05/21 08:20:57;;;;;;;;;;;;;;;25.30;42.14;99382.41;5091336;28;19924;-36
2023/05/21 08:23:22;;;;;;;;;;;;;;;24.83;40.75;99387.28;5091300;28;20592;-36
2023/05/21 08:25:48;;;;;;;;;;;;;;;24.65;40.36;99391.75;5091869;28;19919;-37
2023/05/21 08:28:13;;;;;;;;;;;;;;;24.63;39.36;99387.75;5091118;28;19931;-36
2023/05/21 08:30:38;;;;;;;;;;;;;;;24.67;39.52;99399.63;5091441;28;19912;-37
2023/05/21 08:33:03;;;;;;;;;;;;;;;24.51;38.84;99394.50;5089832;28;19926;-35
2023/05/21 08:35:29;;;;;;;;;;;;;;;24.14;40.64;99390.06;5091148;28;19912;-37
2023/05/21 08:37:54;;;;;;;;;;;;;;;24.25;41.12;99394.19;5090923;28;19913;-37
2023/05/21 08:40:19;;;;;;;;;;;;;;;23.79;40.60;99389.66;5091012;28;19923;-37
2023/05/21 08:42:46;;;;;;;;;;;;;;;23.56;41.34;99396.81;5089732;28;19916;-36
2023/05/21 08:45:15;;;;;;;;;;;;;;;23.28;42.13;99398.66;5090467;28;19966;-37
2023/05/21 08:47:43;;;;;;;;;;;;;;;23.11;42.71;99405.41;5088841;28;19939;-35
2023/05/21 08:50:10;;;;;;;;;;;;;;;23.51;42.62;99392.28;5089761;28;19923;-36
2023/05/21 08:52:35;;;;;;;;;;;;;;;23.74;42.20;99374.25;5098301;28;19911;-36
2023/05/21 08:55:02;;;;;;;;;;;;;;;23.28;42.76;99380.44;5102884;28;20319;-37
2023/05/21 08:57:29;;;;;;;;;;;;;;;23.16;42.36;99371.97;5091402;28;20015;-36
2023/05/21 08:59:54;;;;;;;;;;;;;;;22.99;41.78;99377.91;5090525;28;20280;-36
2023/05/21 09:02:19;;;;;;;;;;;;;;;23.85;40.49;99368.63;5082210;28;19977;-36
2023/05/21 09:04:48;;;;;;;;;;;;;;;24.42;39.97;99377.28;5091176;28;20393;-36
2023/05/21 09:07:14;;;;;;;;;;;;;;;24.77;38.72;99372.22;5090416;28;19948;-36
2023/05/21 09:10:04;;;;;;;;;;;;;;;24.58;39.26;99377.78;5090121;28;19927;-36
2023/05/21 09:12:30;;;;;;;;;;;;;;;24.11;38.67;99369.75;5085511;28;19916;-36
2023/05/21 09:14:57;;;;;;;;;;;;;;;24.61;38.52;99373.66;5090605;28;19916;-36
2023/05/21 09:17:23;;;;;;;;;;;;;;;24.74;38.02;99370.09;5090686;28;20033;-36
2023/05/21 09:20:11;;;;;;;;;;;;;;;25.21;37.75;99361.63;5090001;28;20006;-36
2023/05/21 09:22:39;;;;;;;;;;;;;;;25.48;36.88;99360.72;5084193;28;19923;-36
2023/05/21 09:25:06;;;;;;;;;;;;;;;25.00;37.37;99372.22;5090350;28;20394;-37
2023/05/21 09:27:32;;;;;;;;;;;;;;;25.28;37.99;99365.56;5090208;28;20372;-37
2023/05/21 09:29:57;;;;;;;;;;;;;;;25.29;37.98;99366.38;5090333;28;19923;-36
2023/05/21 09:32:22;;;;;;;;;;;;;;;25.75;36.44;99370.63;5090659;28;19912;-36
2023/05/21 09:34:48;;;;;;;;;;;;;;;25.89;35.80;99367.78;5090614;28;20314;-36
2023/05/21 09:37:14;;;;;;;;;;;;;;;25.70;37.39;99374.31;5090736;28;20030;-36
2023/05/21 09:39:40;;;;;;;;;;;;;;;25.50;36.12;99385.72;5090387;28;20371;-36
2023/05/21 09:42:05;;;;;;;;;;;;;;;25.96;36.26;99373.63;5090579;28;19912;-35
2023/05/21 09:44:31;;;;;;;;;;;;;;;26.35;36.12;99369.28;5090636;28;19923;-37
2023/05/21 09:46:59;;;;;;;;;;;;;;;26.61;36.07;99382.97;5089800;28;19923;-37
2023/05/21 09:49:27;;;;;;;;;;;;;;;26.99;35.07;99381.56;5089657;28;19951;-36
2023/05/21 09:51:56;;;;;;;;;;;;;;;27.37;34.04;99378.16;5091131;28;19916;-36
2023/05/21 09:54:22;;;;;;;;;;;;;;;27.66;33.18;99380.16;5110754;28;19966;-37
2023/05/21 09:56:47;;;;;;;;;;;;;;;27.56;32.06;99372.34;5094894;28;19947;-37
2023/05/21 09:59:12;;;;;;;;;;;;;;;27.68;32.19;99376.00;5089310;28;19976;-36
2023/05/21 10:01:38;;;;;;;;;;;;;;;27.83;32.45;99379.31;5089941;28;19935;-42
2023/05/21 10:04:06;;;;;;;;;;;;;;;27.73;32.37;99371.47;5090408;28;20101;-42
2023/05/21 10:06:33;;;;;;;;;;;;;;;27.82;32.47;99375.00;5090695;28;19919;-43
2023/05/21 10:09:00;;;;;;;;;;;;;;;27.79;32.67;99387.34;5090712;28;20333;-42
2023/05/21 10:11:29;;;;;;;;;;;;;;;27.94;32.24;99388.78;5090113;28;19919;-42
2023/05/21 10:13:56;;;;;;;;;;;;;;;27.90;31.49;99381.59;5090214;28;19916;-42
2023/05/21 10:16:22;;;;;;;;;;;;;;;27.93;31.31;99373.53;5090486;28;19916;-42
2023/05/21 10:18:48;;;;;;;;;;;;;;;27.53;31.86;99375.72;5090488;28;19912;-42
2023/05/21 10:21:14;;;;;;;;;;;;;;;27.50;31.77;99371.72;5090805;28;19934;-42
2023/05/21 10:23:40;;;;;;;;;;;;;;;27.56;31.61;99367.66;5090376;28;19989;-42
2023/05/21 10:26:05;;;;;;;;;;;;;;;27.68;31.96;99366.97;5090235;28;20386;-42
2023/05/21 10:28:32;;;;;;;;;;;;;;;27.74;32.67;99373.06;5090201;28;19928;-42
2023/05/21 10:30:57;;;;;;;;;;;;;;;27.25;32.66;99376.09;5090368;28;19912;-41
2023/05/21 10:33:24;;;;;;;;;;;;;;;27.28;33.16;99379.00;5090343;28;20293;-43
2023/05/21 10:35:50;;;;;;;;;;;;;;;27.42;33.28;99381.53;5091153;28;21456;-41
2023/05/21 10:38:17;;;;;;;;;;;;;;;27.52;33.44;99377.66;5094301;28;20021;-42
2023/05/21 10:40:42;;;;;;;;;;;;;;;27.36;32.77;99388.28;5093549;28;19916;-41
2023/05/21 10:43:37;;;;;;;;;;;;;;;27.05;33.13;99383.78;5097011;28;20302;-42
2023/05/21 10:46:21;;;;;;;;;;;;;;;26.26;33.49;99379.34;5084390;28;19919;-41
2023/05/21 10:48:49;;;;;;;;;;;;;;;26.31;33.04;99381.91;5094065;28;19962;-42
2023/05/21 10:51:20;;;;;;;;;;;;;;;26.23;32.99;99393.63;5094234;28;19954;-43
2023/05/21 10:53:52;;;;;;;;;;;;;;;24.87;36.04;99396.44;5100067;28;20282;-43
2023/05/21 10:56:17;;;;;;;;;;;;;;;23.75;38.77;99397.56;5093061;28;19916;-41
2023/05/21 10:58:42;;;;;;;;;;;;;;;24.19;38.24;99393.50;5093661;28;19935;-42
2023/05/21 11:01:09;;;;;;;;;;;;;;;24.29;38.22;99391.69;5091114;28;20372;-42
2023/05/21 11:03:35;;;;;;;;;;;;;;;23.81;39.83;99390.97;5073419;28;19913;-42
2023/05/21 11:06:01;;;;;;;;;;;;;;;23.47;40.05;99391.25;5073748;28;19916;-45
2023/05/21 11:08:29;;;;;;;;;;;;;;;23.17;40.65;99385.25;5079756;28;19920;-42
2023/05/21 11:10:56;;;;;;;;;;;;;;;22.82;41.75;99386.56;5093645;28;19916;-41
2023/05/21 11:13:22;;;;;;;;;;;;;;;22.89;42.59;99381.56;5093422;28;20074;-42
2023/05/21 11:15:57;;;;;;;;;;;;;;;22.72;43.79;99376.66;5093599;28;20029;-42
2023/05/21 11:18:34;;;;;;;;;;;;;;;22.87;43.04;99369.41;5093182;28;19984;-42
2023/05/21 11:21:25;;;;;;;;;;;;;;;22.71;43.23;99376.94;5089584;28;19919;-43
2023/05/21 11:23:56;;;;;;;;;;;;;;;23.57;42.78;99371.25;5093428;28;19912;-43
2023/05/21 11:26:23;;;;;;;;;;;;;;;23.89;42.19;99365.00;5093167;28;19939;-44
2023/05/21 11:29:03;;;;;;;;;;;;;;;24.10;42.06;99362.69;5090953;28;20046;-42
2023/05/21 11:31:36;;;;;;;;;;;;;;;22.88;44.19;99362.88;5092109;28;20054;-43
2023/05/21 11:34:33;;;;;;;;;;;;;;;23.03;43.51;99363.47;5093002;28;20272;-42
2023/05/21 11:37:17;;;;;;;;;;;;;;;22.51;44.84;99368.00;5090993;28;20002;-42
2023/05/21 11:39:46;;;;;;;;;;;;;;;23.01;44.36;99362.91;5091356;28;19916;-42
2023/05/21 11:42:11;;;;;;;;;;;;;;;23.25;43.85;99361.22;5090322;28;19920;-42
2023/05/21 11:44:40;;;;;;;;;;;;;;;23.11;44.50;99356.56;5093109;28;19919;-42
2023/05/21 11:47:06;;;;;;;;;;;;;;;22.86;44.70;99348.78;5092377;28;19912;-42
2023/05/21 11:49:32;;;;;;;;;;;;;;;23.01;44.74;99362.91;5086354;28;20323;-43
2023/05/21 11:51:58;;;;;;;;;;;;;;;23.36;44.01;99371.63;5092803;28;20364;-41
2023/05/21 11:54:24;;;;;;;;;;;;;;;23.16;44.26;99355.69;5093001;28;19913;-44
2023/05/21 11:56:50;;;;;;;;;;;;;;;23.55;43.77;99351.75;5092979;28;19969;-42
2023/05/21 11:59:15;;;;;;;;;;;;;;;23.85;43.60;99339.53;5092851;28;20444;-42
2023/05/21 12:01:42;;;;;;;;;;;;;;;24.24;42.71;99346.38;5092740;28;20365;-43
2023/05/21 12:04:07;;;;;;;;;;;;;;;23.91;42.95;99340.25;5092588;28;19919;-43
2023/05/21 12:06:33;;;;;;;;;;;;;;;23.90;43.27;99339.47;5086765;28;19916;-43
2023/05/21 12:08:58;;;;;;;;;;;;;;;23.34;43.90;99337.72;5087582;28;19920;-43
2023/05/21 12:11:25;;;;;;;;;;;;;;;23.41;43.91;99330.00;5089007;28;19981;-41
2023/05/21 12:13:50;;;;;;;;;;;;;;;23.33;44.50;99336.13;5092055;28;19912;-43
2023/05/21 12:16:16;;;;;;;;;;;;;;;23.31;44.62;99330.19;5092300;28;19912;-43
2023/05/21 12:18:41;;;;;;;;;;;;;;;23.38;43.89;99330.59;5093674;28;19916;-42
2023/05/21 12:21:07;;;;;;;;;;;;;;;23.62;43.86;99333.16;5094027;28;20285;-43
2023/05/21 12:23:32;;;;;;;;;;;;;;;24.04;42.72;99330.50;5091415;28;19912;-41
2023/05/21 12:25:58;;;;;;;;;;;;;;;24.03;42.19;99334.31;5091479;28;19998;-42
2023/05/21 12:28:23;;;;;;;;;;;;;;;24.34;41.57;99329.06;5091311;28;19932;-44
2023/05/21 12:30:49;;;;;;;;;;;;;;;24.74;40.86;99326.56;5091048;28;19920;-42
2023/05/21 12:33:16;;;;;;;;;;;;;;;24.78;41.14;99322.91;5090182;28;20018;-42
2023/05/21 12:35:45;;;;;;;;;;;;;;;25.14;40.31;99323.97;5091141;28;19916;-41
2023/05/21 12:38:10;;;;;;;;;;;;;;;25.26;40.74;99326.94;5090497;28;19919;-41
2023/05/21 12:40:36;;;;;;;;;;;;;;;25.50;40.29;99323.88;5091239;28;19912;-41
2023/05/21 12:43:02;;;;;;;;;;;;;;;25.65;40.37;99319.16;5090867;28;19946;-42